sensor_id;sensor_type;location;lat;lon;timestamp;temperature;humidity
43651;DHT22;29247;50.944;5.382;2022-09-03T00:02:25;20.50;48.50
43651;DHT22;29247;50.944;5.382;2022-09-03T00:10:52;20.50;49.10
43651;DHT22;29247;50.944;5.382;2022-09-03T00:13:23;20.40;48.80
43651;DHT22;29247;50.944;5.382;2022-09-03T00:15:54;20.30;48.50
43651;DHT22;29247;50.944;5.382;2022-09-03T00:18:26;20.20;48.50
43651;DHT22;29247;50.944;5.382;2022-09-03T00:21:07;20.20;48.70
43651;DHT22;29247;50.944;5.382;2022-09-03T00:23:41;20.20;49.50
43651;DHT22;29247;50.944;5.382;2022-09-03T00:28:50;20.20;49.20
43651;DHT22;29247;50.944;5.382;2022-09-03T00:31:24;20.10;49.50
43651;DHT22;29247;50.944;5.382;2022-09-03T00:34:04;20.10;49.60
43651;DHT22;29247;50.944;5.382;2022-09-03T00:36:41;20.10;49.60
43651;DHT22;29247;50.944;5.382;2022-09-03T00:39:24;20.00;49.50
43651;DHT22;29247;50.944;5.382;2022-09-03T00:50:39;19.80;50.00
43651;DHT22;29247;50.944;5.382;2022-09-03T01:15:44;19.60;50.80
43651;DHT22;29247;50.944;5.382;2022-09-03T01:18:47;19.60;50.90
43651;DHT22;29247;50.944;5.382;2022-09-03T01:21:38;19.60;51.00
43651;DHT22;29247;50.944;5.382;2022-09-03T01:30:07;19.50;51.20
43651;DHT22;29247;50.944;5.382;2022-09-03T01:39:06;19.40;51.80
43651;DHT22;29247;50.944;5.382;2022-09-03T01:50:57;19.40;52.50
43651;DHT22;29247;50.944;5.382;2022-09-03T01:59:08;19.40;52.90
43651;DHT22;29247;50.944;5.382;2022-09-03T02:01:52;19.40;52.80
43651;DHT22;29247;50.944;5.382;2022-09-03T02:04:23;19.40;52.70
43651;DHT22;29247;50.944;5.382;2022-09-03T02:06:57;19.40;52.70
43651;DHT22;29247;50.944;5.382;2022-09-03T02:09:25;19.40;52.80
43651;DHT22;29247;50.944;5.382;2022-09-03T02:12:18;19.40;52.90
43651;DHT22;29247;50.944;5.382;2022-09-03T02:14:45;19.40;53.00
43651;DHT22;29247;50.944;5.382;2022-09-03T02:17:13;19.40;52.90
43651;DHT22;29247;50.944;5.382;2022-09-03T02:19:39;19.40;53.00
43651;DHT22;29247;50.944;5.382;2022-09-03T02:22:07;19.40;53.10
43651;DHT22;29247;50.944;5.382;2022-09-03T02:24:33;19.40;53.10
43651;DHT22;29247;50.944;5.382;2022-09-03T02:27:03;19.40;53.30
43651;DHT22;29247;50.944;5.382;2022-09-03T02:29:32;19.40;53.30
43651;DHT22;29247;50.944;5.382;2022-09-03T02:31:57;19.40;53.40
43651;DHT22;29247;50.944;5.382;2022-09-03T02:34:23;19.50;53.40
43651;DHT22;29247;50.944;5.382;2022-09-03T02:36:52;19.50;53.40
43651;DHT22;29247;50.944;5.382;2022-09-03T02:39:18;19.50;53.50
43651;DHT22;29247;50.944;5.382;2022-09-03T02:41:50;19.50;53.60
43651;DHT22;29247;50.944;5.382;2022-09-03T02:44:27;19.50;53.50
43651;DHT22;29247;50.944;5.382;2022-09-03T02:47:00;19.50;53.50
43651;DHT22;29247;50.944;5.382;2022-09-03T02:49:31;19.50;53.60
43651;DHT22;29247;50.944;5.382;2022-09-03T02:52:05;19.50;53.50
43651;DHT22;29247;50.944;5.382;2022-09-03T02:54:34;19.60;53.40
43651;DHT22;29247;50.944;5.382;2022-09-03T02:57:13;19.50;53.30
43651;DHT22;29247;50.944;5.382;2022-09-03T02:59:44;19.50;53.30
43651;DHT22;29247;50.944;5.382;2022-09-03T03:02:13;19.50;53.60
43651;DHT22;29247;50.944;5.382;2022-09-03T03:04:44;19.40;53.50
43651;DHT22;29247;50.944;5.382;2022-09-03T03:07:09;19.40;53.50
43651;DHT22;29247;50.944;5.382;2022-09-03T03:09:35;19.40;53.70
43651;DHT22;29247;50.944;5.382;2022-09-03T03:12:03;19.40;53.70
43651;DHT22;29247;50.944;5.382;2022-09-03T03:14:38;19.40;53.80
43651;DHT22;29247;50.944;5.382;2022-09-03T03:17:04;19.40;53.70
43651;DHT22;29247;50.944;5.382;2022-09-03T03:19:32;19.40;53.80
43651;DHT22;29247;50.944;5.382;2022-09-03T03:22:02;19.40;53.90
43651;DHT22;29247;50.944;5.382;2022-09-03T03:24:28;19.40;53.90
43651;DHT22;29247;50.944;5.382;2022-09-03T03:27:01;19.40;53.90
43651;DHT22;29247;50.944;5.382;2022-09-03T03:29:31;19.40;54.10
43651;DHT22;29247;50.944;5.382;2022-09-03T03:31:57;19.40;54.20
43651;DHT22;29247;50.944;5.382;2022-09-03T03:34:22;19.40;54.10
43651;DHT22;29247;50.944;5.382;2022-09-03T03:36:48;19.40;54.40
43651;DHT22;29247;50.944;5.382;2022-09-03T03:39:14;19.30;54.50
43651;DHT22;29247;50.944;5.382;2022-09-03T03:41:43;19.30;54.50
43651;DHT22;29247;50.944;5.382;2022-09-03T03:44:13;19.30;54.30
43651;DHT22;29247;50.944;5.382;2022-09-03T03:46:40;19.30;54.50
43651;DHT22;29247;50.944;5.382;2022-09-03T03:49:07;19.30;54.60
43651;DHT22;29247;50.944;5.382;2022-09-03T03:51:36;19.30;54.60
43651;DHT22;29247;50.944;5.382;2022-09-03T03:54:03;19.30;54.70
43651;DHT22;29247;50.944;5.382;2022-09-03T03:56:29;19.30;54.70
43651;DHT22;29247;50.944;5.382;2022-09-03T03:58:55;19.30;54.60
43651;DHT22;29247;50.944;5.382;2022-09-03T04:01:23;19.30;54.70
43651;DHT22;29247;50.944;5.382;2022-09-03T04:03:49;19.30;54.70
43651;DHT22;29247;50.944;5.382;2022-09-03T04:06:18;19.30;54.60
43651;DHT22;29247;50.944;5.382;2022-09-03T04:08:46;19.30;54.70
43651;DHT22;29247;50.944;5.382;2022-09-03T04:11:17;19.30;54.70
43651;DHT22;29247;50.944;5.382;2022-09-03T04:13:46;19.30;54.60
43651;DHT22;29247;50.944;5.382;2022-09-03T04:16:18;19.20;54.60
43651;DHT22;29247;50.944;5.382;2022-09-03T04:18:46;19.20;54.70
43651;DHT22;29247;50.944;5.382;2022-09-03T04:21:16;19.20;54.90
43651;DHT22;29247;50.944;5.382;2022-09-03T04:23:45;19.20;55.00
43651;DHT22;29247;50.944;5.382;2022-09-03T04:26:16;19.20;55.10
43651;DHT22;29247;50.944;5.382;2022-09-03T04:28:44;19.20;55.10
43651;DHT22;29247;50.944;5.382;2022-09-03T04:31:13;19.20;55.20
43651;DHT22;29247;50.944;5.382;2022-09-03T04:33:39;19.20;54.90
43651;DHT22;29247;50.944;5.382;2022-09-03T04:38:41;19.20;55.00
43651;DHT22;29247;50.944;5.382;2022-09-03T04:41:10;19.20;55.00
43651;DHT22;29247;50.944;5.382;2022-09-03T04:43:39;19.20;54.80
43651;DHT22;29247;50.944;5.382;2022-09-03T04:46:09;19.20;54.80
43651;DHT22;29247;50.944;5.382;2022-09-03T04:48:36;19.20;54.90
43651;DHT22;29247;50.944;5.382;2022-09-03T04:51:08;19.20;54.80
43651;DHT22;29247;50.944;5.382;2022-09-03T04:53:39;19.20;54.80
43651;DHT22;29247;50.944;5.382;2022-09-03T04:58:39;19.20;54.90
43651;DHT22;29247;50.944;5.382;2022-09-03T05:01:14;19.20;54.80
43651;DHT22;29247;50.944;5.382;2022-09-03T05:03:42;19.20;54.70
43651;DHT22;29247;50.944;5.382;2022-09-03T05:06:08;19.20;54.90
43651;DHT22;29247;50.944;5.382;2022-09-03T05:08:36;19.20;54.90
43651;DHT22;29247;50.944;5.382;2022-09-03T05:11:06;19.20;55.00
43651;DHT22;29247;50.944;5.382;2022-09-03T05:13:33;19.20;54.90
43651;DHT22;29247;50.944;5.382;2022-09-03T05:16:05;19.20;55.00
43651;DHT22;29247;50.944;5.382;2022-09-03T05:18:39;19.20;54.90
43651;DHT22;29247;50.944;5.382;2022-09-03T05:21:11;19.20;54.90
43651;DHT22;29247;50.944;5.382;2022-09-03T05:23:43;19.20;54.90
43651;DHT22;29247;50.944;5.382;2022-09-03T05:26:21;19.20;54.90
43651;DHT22;29247;50.944;5.382;2022-09-03T05:28:53;19.20;54.90
43651;DHT22;29247;50.944;5.382;2022-09-03T05:31:23;19.20;54.80
43651;DHT22;29247;50.944;5.382;2022-09-03T05:33:52;19.20;55.20
43651;DHT22;29247;50.944;5.382;2022-09-03T05:36:23;19.10;55.30
43651;DHT22;29247;50.944;5.382;2022-09-03T05:38:51;19.20;55.20
43651;DHT22;29247;50.944;5.382;2022-09-03T05:41:21;19.20;55.20
43651;DHT22;29247;50.944;5.382;2022-09-03T05:43:50;19.20;55.30
43651;DHT22;29247;50.944;5.382;2022-09-03T05:46:23;19.20;55.40
43651;DHT22;29247;50.944;5.382;2022-09-03T05:48:54;19.20;55.40
43651;DHT22;29247;50.944;5.382;2022-09-03T05:51:23;19.20;55.50
43651;DHT22;29247;50.944;5.382;2022-09-03T05:53:48;19.20;55.50
43651;DHT22;29247;50.944;5.382;2022-09-03T05:56:19;19.20;55.40
43651;DHT22;29247;50.944;5.382;2022-09-03T05:58:51;19.30;55.40
43651;DHT22;29247;50.944;5.382;2022-09-03T06:01:27;19.30;55.50
43651;DHT22;29247;50.944;5.382;2022-09-03T06:04:02;19.30;55.60
43651;DHT22;29247;50.944;5.382;2022-09-03T06:06:32;19.30;55.60
43651;DHT22;29247;50.944;5.382;2022-09-03T06:09:00;19.30;55.60
43651;DHT22;29247;50.944;5.382;2022-09-03T06:11:27;19.40;55.40
43651;DHT22;29247;50.944;5.382;2022-09-03T06:14:00;19.40;55.50
43651;DHT22;29247;50.944;5.382;2022-09-03T06:16:29;19.40;55.60
43651;DHT22;29247;50.944;5.382;2022-09-03T06:19:00;19.40;55.80
43651;DHT22;29247;50.944;5.382;2022-09-03T06:21:27;19.50;56.00
43651;DHT22;29247;50.944;5.382;2022-09-03T06:23:56;19.50;56.30
43651;DHT22;29247;50.944;5.382;2022-09-03T06:26:22;19.60;56.60
43651;DHT22;29247;50.944;5.382;2022-09-03T06:28:48;19.60;56.60
43651;DHT22;29247;50.944;5.382;2022-09-03T06:31:21;19.70;56.70
43651;DHT22;29247;50.944;5.382;2022-09-03T06:33:47;19.70;56.60
43651;DHT22;29247;50.944;5.382;2022-09-03T06:36:17;19.70;56.50
43651;DHT22;29247;50.944;5.382;2022-09-03T06:38:43;19.70;56.60
43651;DHT22;29247;50.944;5.382;2022-09-03T06:41:15;19.80;56.50
43651;DHT22;29247;50.944;5.382;2022-09-03T06:44:01;19.80;56.60
43651;DHT22;29247;50.944;5.382;2022-09-03T06:46:31;19.80;56.60
43651;DHT22;29247;50.944;5.382;2022-09-03T06:49:00;19.80;56.70
43651;DHT22;29247;50.944;5.382;2022-09-03T06:51:30;19.80;56.70
43651;DHT22;29247;50.944;5.382;2022-09-03T06:54:00;19.80;56.80
43651;DHT22;29247;50.944;5.382;2022-09-03T06:56:29;19.80;56.80
43651;DHT22;29247;50.944;5.382;2022-09-03T06:59:02;19.80;57.00
43651;DHT22;29247;50.944;5.382;2022-09-03T07:01:32;19.80;57.20
43651;DHT22;29247;50.944;5.382;2022-09-03T07:04:00;19.80;57.20
43651;DHT22;29247;50.944;5.382;2022-09-03T07:06:37;19.80;57.30
43651;DHT22;29247;50.944;5.382;2022-09-03T07:09:08;19.80;57.60
43651;DHT22;29247;50.944;5.382;2022-09-03T07:11:36;19.80;57.70
43651;DHT22;29247;50.944;5.382;2022-09-03T07:14:14;19.80;57.90
43651;DHT22;29247;50.944;5.382;2022-09-03T07:16:40;19.80;58.20
43651;DHT22;29247;50.944;5.382;2022-09-03T07:19:10;19.90;58.60
43651;DHT22;29247;50.944;5.382;2022-09-03T07:21:47;19.90;58.90
43651;DHT22;29247;50.944;5.382;2022-09-03T07:24:13;20.00;59.10
43651;DHT22;29247;50.944;5.382;2022-09-03T07:26:42;20.10;59.20
43651;DHT22;29247;50.944;5.382;2022-09-03T07:29:13;20.10;59.10
43651;DHT22;29247;50.944;5.382;2022-09-03T07:31:43;20.20;59.00
43651;DHT22;29247;50.944;5.382;2022-09-03T07:34:12;20.30;58.90
43651;DHT22;29247;50.944;5.382;2022-09-03T07:36:41;20.40;58.80
43651;DHT22;29247;50.944;5.382;2022-09-03T07:39:09;20.40;58.80
43651;DHT22;29247;50.944;5.382;2022-09-03T07:41:38;20.50;58.60
43651;DHT22;29247;50.944;5.382;2022-09-03T07:44:10;20.60;58.40
43651;DHT22;29247;50.944;5.382;2022-09-03T07:46:36;20.70;58.30
43651;DHT22;29247;50.944;5.382;2022-09-03T07:49:03;20.80;57.90
43651;DHT22;29247;50.944;5.382;2022-09-03T07:51:34;20.90;57.50
43651;DHT22;29247;50.944;5.382;2022-09-03T07:54:02;21.00;57.10
43651;DHT22;29247;50.944;5.382;2022-09-03T07:56:29;21.10;56.60
43651;DHT22;29247;50.944;5.382;2022-09-03T07:58:56;21.30;56.10
43651;DHT22;29247;50.944;5.382;2022-09-03T08:01:26;21.40;55.60
43651;DHT22;29247;50.944;5.382;2022-09-03T08:03:55;21.50;55.10
43651;DHT22;29247;50.944;5.382;2022-09-03T08:06:23;21.60;54.80
43651;DHT22;29247;50.944;5.382;2022-09-03T08:08:54;21.70;55.20
43651;DHT22;29247;50.944;5.382;2022-09-03T08:11:22;21.80;54.00
43651;DHT22;29247;50.944;5.382;2022-09-03T08:13:54;21.90;53.70
43651;DHT22;29247;50.944;5.382;2022-09-03T08:16:25;22.00;53.50
43651;DHT22;29247;50.944;5.382;2022-09-03T08:18:54;22.00;53.30
43651;DHT22;29247;50.944;5.382;2022-09-03T08:21:21;22.10;53.30
43651;DHT22;29247;50.944;5.382;2022-09-03T08:23:53;22.10;53.20
43651;DHT22;29247;50.944;5.382;2022-09-03T08:26:21;22.10;53.20
43651;DHT22;29247;50.944;5.382;2022-09-03T08:28:51;22.20;53.30
43651;DHT22;29247;50.944;5.382;2022-09-03T08:31:21;22.20;53.40
43651;DHT22;29247;50.944;5.382;2022-09-03T08:33:52;22.30;53.50
43651;DHT22;29247;50.944;5.382;2022-09-03T08:36:30;22.40;54.00
43651;DHT22;29247;50.944;5.382;2022-09-03T08:39:01;22.40;53.90
43651;DHT22;29247;50.944;5.382;2022-09-03T08:42:09;22.50;53.90
43651;DHT22;29247;50.944;5.382;2022-09-03T08:44:54;22.60;54.30
43651;DHT22;29247;50.944;5.382;2022-09-03T08:47:41;22.70;53.90
43651;DHT22;29247;50.944;5.382;2022-09-03T08:58:24;23.10;53.00
43651;DHT22;29247;50.944;5.382;2022-09-03T09:06:37;23.60;52.50
43651;DHT22;29247;50.944;5.382;2022-09-03T09:14:49;24.00;51.50
43651;DHT22;29247;50.944;5.382;2022-09-03T09:17:48;24.10;51.70
43651;DHT22;29247;50.944;5.382;2022-09-03T09:23:09;24.30;51.90
43651;DHT22;29247;50.944;5.382;2022-09-03T09:25:39;24.40;51.70
43651;DHT22;29247;50.944;5.382;2022-09-03T09:28:23;24.60;51.80
43651;DHT22;29247;50.944;5.382;2022-09-03T09:30:54;24.60;52.10
43651;DHT22;29247;50.944;5.382;2022-09-03T09:33:21;24.70;52.00
43651;DHT22;29247;50.944;5.382;2022-09-03T09:35:51;24.80;51.90
43651;DHT22;29247;50.944;5.382;2022-09-03T09:38:31;24.80;52.00
43651;DHT22;29247;50.944;5.382;2022-09-03T09:41:11;24.90;51.90
43651;DHT22;29247;50.944;5.382;2022-09-03T09:43:42;25.00;51.80
43651;DHT22;29247;50.944;5.382;2022-09-03T09:46:15;25.10;51.80
43651;DHT22;29247;50.944;5.382;2022-09-03T09:48:48;25.20;51.60
43651;DHT22;29247;50.944;5.382;2022-09-03T09:51:31;25.20;51.70
43651;DHT22;29247;50.944;5.382;2022-09-03T09:54:16;25.30;51.40
43651;DHT22;29247;50.944;5.382;2022-09-03T09:56:43;25.30;51.20
43651;DHT22;29247;50.944;5.382;2022-09-03T09:59:13;25.40;51.10
43651;DHT22;29247;50.944;5.382;2022-09-03T10:01:44;25.40;51.20
43651;DHT22;29247;50.944;5.382;2022-09-03T10:04:28;25.50;51.50
43651;DHT22;29247;50.944;5.382;2022-09-03T10:07:24;25.50;51.70
43651;DHT22;29247;50.944;5.382;2022-09-03T10:12:45;25.50;52.30
43651;DHT22;29247;50.944;5.382;2022-09-03T10:17:52;25.50;52.70
43651;DHT22;29247;50.944;5.382;2022-09-03T10:25:42;25.40;52.50
43651;DHT22;29247;50.944;5.382;2022-09-03T10:28:21;25.40;52.70
43651;DHT22;29247;50.944;5.382;2022-09-03T10:31:12;25.40;52.80
43651;DHT22;29247;50.944;5.382;2022-09-03T10:39:10;25.40;53.20
43651;DHT22;29247;50.944;5.382;2022-09-03T10:50:28;25.40;53.00
43651;DHT22;29247;50.944;5.382;2022-09-03T10:55:59;25.50;52.90
43651;DHT22;29247;50.944;5.382;2022-09-03T10:58:57;25.50;52.80
43651;DHT22;29247;50.944;5.382;2022-09-03T11:07:19;25.70;52.40
43651;DHT22;29247;50.944;5.382;2022-09-03T11:09:56;25.70;52.40
43651;DHT22;29247;50.944;5.382;2022-09-03T11:12:34;25.70;52.40
43651;DHT22;29247;50.944;5.382;2022-09-03T11:15:08;25.80;52.40
43651;DHT22;29247;50.944;5.382;2022-09-03T11:17:40;25.80;52.20
43651;DHT22;29247;50.944;5.382;2022-09-03T11:20:19;25.80;52.10
43651;DHT22;29247;50.944;5.382;2022-09-03T11:22:48;25.80;52.00
43651;DHT22;29247;50.944;5.382;2022-09-03T11:25:19;25.80;51.60
43651;DHT22;29247;50.944;5.382;2022-09-03T11:28:25;25.80;51.30
43651;DHT22;29247;50.944;5.382;2022-09-03T11:31:04;25.80;51.20
43651;DHT22;29247;50.944;5.382;2022-09-03T11:33:41;25.80;51.40
43651;DHT22;29247;50.944;5.382;2022-09-03T11:36:25;25.80;51.40
43651;DHT22;29247;50.944;5.382;2022-09-03T11:38:52;25.80;51.30
43651;DHT22;29247;50.944;5.382;2022-09-03T11:41:33;25.90;51.20
43651;DHT22;29247;50.944;5.382;2022-09-03T11:44:18;25.90;51.30
43651;DHT22;29247;50.944;5.382;2022-09-03T11:46:57;26.00;52.20
43651;DHT22;29247;50.944;5.382;2022-09-03T11:49:44;26.10;51.80
43651;DHT22;29247;50.944;5.382;2022-09-03T11:52:10;26.10;51.60
43651;DHT22;29247;50.944;5.382;2022-09-03T11:54:44;26.20;51.50
43651;DHT22;29247;50.944;5.382;2022-09-03T11:59:52;26.30;51.80
43651;DHT22;29247;50.944;5.382;2022-09-03T12:02:31;26.30;50.30
43651;DHT22;29247;50.944;5.382;2022-09-03T12:05:16;26.30;50.00
43651;DHT22;29247;50.944;5.382;2022-09-03T12:08:15;26.30;49.80
43651;DHT22;29247;50.944;5.382;2022-09-03T12:21:47;26.40;49.60
43651;DHT22;29247;50.944;5.382;2022-09-03T12:24:16;26.40;49.50
43651;DHT22;29247;50.944;5.382;2022-09-03T12:26:50;26.50;49.80
43651;DHT22;29247;50.944;5.382;2022-09-03T12:29:24;26.50;49.30
43651;DHT22;29247;50.944;5.382;2022-09-03T12:31:53;26.50;49.20
43651;DHT22;29247;50.944;5.382;2022-09-03T12:34:24;26.50;49.00
43651;DHT22;29247;50.944;5.382;2022-09-03T12:36:55;26.50;48.80
43651;DHT22;29247;50.944;5.382;2022-09-03T12:39:23;26.60;48.40
43651;DHT22;29247;50.944;5.382;2022-09-03T12:41:55;26.60;47.70
43651;DHT22;29247;50.944;5.382;2022-09-03T12:44:27;26.60;47.10
43651;DHT22;29247;50.944;5.382;2022-09-03T12:47:11;26.60;47.00
43651;DHT22;29247;50.944;5.382;2022-09-03T12:49:40;26.50;47.30
43651;DHT22;29247;50.944;5.382;2022-09-03T12:52:33;26.50;47.40
43651;DHT22;29247;50.944;5.382;2022-09-03T12:55:37;26.50;47.40
43651;DHT22;29247;50.944;5.382;2022-09-03T12:58:25;26.50;47.70
43651;DHT22;29247;50.944;5.382;2022-09-03T13:03:52;26.50;47.70
43651;DHT22;29247;50.944;5.382;2022-09-03T13:06:28;26.60;47.80
43651;DHT22;29247;50.944;5.382;2022-09-03T13:09:03;26.60;48.20
43651;DHT22;29247;50.944;5.382;2022-09-03T13:11:36;26.60;48.40
43651;DHT22;29247;50.944;5.382;2022-09-03T13:14:09;26.70;48.60
43651;DHT22;29247;50.944;5.382;2022-09-03T13:22:14;27.00;48.00
43651;DHT22;29247;50.944;5.382;2022-09-03T13:30:15;27.10;47.40
43651;DHT22;29247;50.944;5.382;2022-09-03T13:33:01;27.20;47.10
43651;DHT22;29247;50.944;5.382;2022-09-03T13:35:46;27.30;46.60
43651;DHT22;29247;50.944;5.382;2022-09-03T13:44:05;27.40;45.60
43651;DHT22;29247;50.944;5.382;2022-09-03T13:49:55;27.40;44.90
43651;DHT22;29247;50.944;5.382;2022-09-03T13:55:52;27.50;44.50
43651;DHT22;29247;50.944;5.382;2022-09-03T13:58:40;27.50;44.30
43651;DHT22;29247;50.944;5.382;2022-09-03T14:01:24;27.50;45.30
43651;DHT22;29247;50.944;5.382;2022-09-03T14:03:55;27.40;46.30
43651;DHT22;29247;50.944;5.382;2022-09-03T14:14:39;27.10;46.80
43651;DHT22;29247;50.944;5.382;2022-09-03T14:17:31;27.00;47.00
43651;DHT22;29247;50.944;5.382;2022-09-03T14:20:29;26.90;47.40
43651;DHT22;29247;50.944;5.382;2022-09-03T14:25:58;26.70;47.70
43651;DHT22;29247;50.944;5.382;2022-09-03T14:28:36;26.70;47.90
43651;DHT22;29247;50.944;5.382;2022-09-03T14:42:13;26.40;50.40
43651;DHT22;29247;50.944;5.382;2022-09-03T14:58:45;26.30;52.40
43651;DHT22;29247;50.944;5.382;2022-09-03T15:09:22;26.40;51.10
43651;DHT22;29247;50.944;5.382;2022-09-03T15:12:05;26.50;51.00
43651;DHT22;29247;50.944;5.382;2022-09-03T15:15:12;26.50;50.90
43651;DHT22;29247;50.944;5.382;2022-09-03T15:20:35;26.70;50.90
43651;DHT22;29247;50.944;5.382;2022-09-03T15:26:09;26.70;50.80
43651;DHT22;29247;50.944;5.382;2022-09-03T15:29:17;26.70;50.90
43651;DHT22;29247;50.944;5.382;2022-09-03T15:32:09;26.60;50.90
43651;DHT22;29247;50.944;5.382;2022-09-03T15:37:51;26.50;51.40
43651;DHT22;29247;50.944;5.382;2022-09-03T15:42:51;26.50;52.10
43651;DHT22;29247;50.944;5.382;2022-09-03T15:45:39;26.40;51.90
43651;DHT22;29247;50.944;5.382;2022-09-03T15:51:24;26.40;52.50
43651;DHT22;29247;50.944;5.382;2022-09-03T15:53:51;26.30;52.40
43651;DHT22;29247;50.944;5.382;2022-09-03T15:56:54;26.30;52.20
43651;DHT22;29247;50.944;5.382;2022-09-03T16:05:20;26.10;53.20
43651;DHT22;29247;50.944;5.382;2022-09-03T16:08:01;26.00;53.40
43651;DHT22;29247;50.944;5.382;2022-09-03T16:10:49;26.00;53.90
43651;DHT22;29247;50.944;5.382;2022-09-03T16:16:21;25.90;54.80
43651;DHT22;29247;50.944;5.382;2022-09-03T16:19:02;25.80;55.10
43651;DHT22;29247;50.944;5.382;2022-09-03T16:24:59;25.80;55.40
43651;DHT22;29247;50.944;5.382;2022-09-03T16:30:06;25.80;55.30
43651;DHT22;29247;50.944;5.382;2022-09-03T16:32:45;25.80;55.20
43651;DHT22;29247;50.944;5.382;2022-09-03T16:35:23;25.80;55.30
43651;DHT22;29247;50.944;5.382;2022-09-03T16:38:06;25.80;55.40
43651;DHT22;29247;50.944;5.382;2022-09-03T16:40:55;25.80;55.60
43651;DHT22;29247;50.944;5.382;2022-09-03T16:43:45;25.80;55.80
43651;DHT22;29247;50.944;5.382;2022-09-03T16:46:26;25.80;56.10
43651;DHT22;29247;50.944;5.382;2022-09-03T17:00:13;25.60;56.40
43651;DHT22;29247;50.944;5.382;2022-09-03T17:06:07;25.60;56.60
43651;DHT22;29247;50.944;5.382;2022-09-03T17:09:06;25.60;56.80
43651;DHT22;29247;50.944;5.382;2022-09-03T17:11:50;25.50;57.00
43651;DHT22;29247;50.944;5.382;2022-09-03T17:14:34;25.50;57.00
43651;DHT22;29247;50.944;5.382;2022-09-03T17:20:00;25.50;56.90
43651;DHT22;29247;50.944;5.382;2022-09-03T17:25:34;25.40;57.10
43651;DHT22;29247;50.944;5.382;2022-09-03T17:30:57;25.30;57.20
43651;DHT22;29247;50.944;5.382;2022-09-03T17:36:27;25.20;57.40
43651;DHT22;29247;50.944;5.382;2022-09-03T17:41:51;25.20;57.90
43651;DHT22;29247;50.944;5.382;2022-09-03T17:44:28;25.20;58.10
43651;DHT22;29247;50.944;5.382;2022-09-03T17:47:41;25.10;58.20
43651;DHT22;29247;50.944;5.382;2022-09-03T17:52:42;25.10;59.10
43651;DHT22;29247;50.944;5.382;2022-09-03T17:55:32;25.10;58.90
43651;DHT22;29247;50.944;5.382;2022-09-03T17:58:12;25.00;59.30
43651;DHT22;29247;50.944;5.382;2022-09-03T18:03:54;25.00;59.50
43651;DHT22;29247;50.944;5.382;2022-09-03T18:06:27;24.90;59.80
43651;DHT22;29247;50.944;5.382;2022-09-03T18:11:50;24.90;60.80
43651;DHT22;29247;50.944;5.382;2022-09-03T18:14:21;24.90;61.20
43651;DHT22;29247;50.944;5.382;2022-09-03T18:17:04;24.90;61.40
43651;DHT22;29247;50.944;5.382;2022-09-03T18:19:47;24.90;61.60
43651;DHT22;29247;50.944;5.382;2022-09-03T18:23:01;24.80;61.70
43651;DHT22;29247;50.944;5.382;2022-09-03T18:25:51;24.80;62.00
43651;DHT22;29247;50.944;5.382;2022-09-03T18:28:46;24.80;62.00
43651;DHT22;29247;50.944;5.382;2022-09-03T18:31:33;24.80;62.20
43651;DHT22;29247;50.944;5.382;2022-09-03T18:34:27;24.80;62.40
43651;DHT22;29247;50.944;5.382;2022-09-03T18:37:16;24.70;62.50
43651;DHT22;29247;50.944;5.382;2022-09-03T18:40:02;24.70;61.80
43651;DHT22;29247;50.944;5.382;2022-09-03T18:46:02;24.60;61.50
43651;DHT22;29247;50.944;5.382;2022-09-03T18:52:02;24.50;61.60
43651;DHT22;29247;50.944;5.382;2022-09-03T18:55:22;24.50;61.60
43651;DHT22;29247;50.944;5.382;2022-09-03T19:04:27;24.40;61.60
43651;DHT22;29247;50.944;5.382;2022-09-03T19:07:50;24.40;61.50
43651;DHT22;29247;50.944;5.382;2022-09-03T19:10:53;24.30;61.40
43651;DHT22;29247;50.944;5.382;2022-09-03T19:13:39;24.30;61.20
43651;DHT22;29247;50.944;5.382;2022-09-03T19:20:11;24.20;61.30
43651;DHT22;29247;50.944;5.382;2022-09-03T19:22:56;24.20;61.20
43651;DHT22;29247;50.944;5.382;2022-09-03T19:25:42;24.20;61.10
43651;DHT22;29247;50.944;5.382;2022-09-03T19:28:30;24.20;61.10
43651;DHT22;29247;50.944;5.382;2022-09-03T19:31:42;24.20;60.90
43651;DHT22;29247;50.944;5.382;2022-09-03T19:53:52;24.00;60.50
43651;DHT22;29247;50.944;5.382;2022-09-03T19:56:40;24.00;60.60
43651;DHT22;29247;50.944;5.382;2022-09-03T19:59:28;24.00;60.70
43651;DHT22;29247;50.944;5.382;2022-09-03T20:02:18;23.90;60.70
43651;DHT22;29247;50.944;5.382;2022-09-03T20:05:09;23.90;60.80
43651;DHT22;29247;50.944;5.382;2022-09-03T20:07:57;23.90;61.00
43651;DHT22;29247;50.944;5.382;2022-09-03T20:10:46;23.80;61.00
43651;DHT22;29247;50.944;5.382;2022-09-03T20:13:15;23.80;61.00
43651;DHT22;29247;50.944;5.382;2022-09-03T20:16:07;23.70;61.20
43651;DHT22;29247;50.944;5.382;2022-09-03T20:21:52;23.60;61.70
43651;DHT22;29247;50.944;5.382;2022-09-03T20:28:19;23.50;62.00
43651;DHT22;29247;50.944;5.382;2022-09-03T20:30:21;23.40;62.10
43651;DHT22;29247;50.944;5.382;2022-09-03T20:38:14;23.30;62.50
43651;DHT22;29247;50.944;5.382;2022-09-03T20:40:50;23.30;62.50
43651;DHT22;29247;50.944;5.382;2022-09-03T20:47:00;23.30;62.50
43651;DHT22;29247;50.944;5.382;2022-09-03T20:49:21;23.20;62.40
43651;DHT22;29247;50.944;5.382;2022-09-03T20:51:56;23.20;62.30
43651;DHT22;29247;50.944;5.382;2022-09-03T21:00:00;23.10;62.50
43651;DHT22;29247;50.944;5.382;2022-09-03T21:14:13;23.00;63.20
43651;DHT22;29247;50.944;5.382;2022-09-03T21:25:04;22.90;63.70
43651;DHT22;29247;50.944;5.382;2022-09-03T21:27:49;22.80;63.90
43651;DHT22;29247;50.944;5.382;2022-09-03T21:30:19;22.80;64.10
43651;DHT22;29247;50.944;5.382;2022-09-03T21:33:01;22.80;64.30
43651;DHT22;29247;50.944;5.382;2022-09-03T21:35:41;22.80;64.60
43651;DHT22;29247;50.944;5.382;2022-09-03T21:38:25;22.70;64.50
43651;DHT22;29247;50.944;5.382;2022-09-03T21:41:18;22.70;64.70
43651;DHT22;29247;50.944;5.382;2022-09-03T21:43:49;22.70;64.90
43651;DHT22;29247;50.944;5.382;2022-09-03T21:46:43;22.70;64.90
43651;DHT22;29247;50.944;5.382;2022-09-03T21:49:16;22.60;64.90
43651;DHT22;29247;50.944;5.382;2022-09-03T21:54:32;22.50;65.10
43651;DHT22;29247;50.944;5.382;2022-09-03T22:02:30;22.40;65.30
43651;DHT22;29247;50.944;5.382;2022-09-03T22:04:58;22.40;65.40
43651;DHT22;29247;50.944;5.382;2022-09-03T22:07:48;22.30;65.60
43651;DHT22;29247;50.944;5.382;2022-09-03T22:13:29;22.30;66.00
43651;DHT22;29247;50.944;5.382;2022-09-03T22:16:20;22.20;65.90
43651;DHT22;29247;50.944;5.382;2022-09-03T22:18:52;22.20;66.20
43651;DHT22;29247;50.944;5.382;2022-09-03T22:27:19;22.10;67.00
43651;DHT22;29247;50.944;5.382;2022-09-03T22:32:31;22.00;67.10
43651;DHT22;29247;50.944;5.382;2022-09-03T22:46:12;21.90;67.90
43651;DHT22;29247;50.944;5.382;2022-09-03T22:56:54;21.70;68.20
43651;DHT22;29247;50.944;5.382;2022-09-03T22:59:25;21.70;68.40